Skip Navigation LinksHome page > Weather > Current weather Skip Navigation Links

Current Weather

New Tokyo International (Narita), Tokyo

For information only: do not use for flight planning or navigation.
Latest weather
Observation time Friday, November 28, 2014 12:30 AM JST
Local time Friday, November 28, 2014 12:47 AM JST
Flight conditions Visual Meteorological Conditions
Winds
Wind direction Southwest (230°)
Wind speed 3 mph
Visibility 6.2 mi.
Present weather MIFG
Sky condition
Ceiling unlimited
Cloud layer few clouds 1,000 ft.
Temperature 43°F
Dewpoint 41°F
Altimeter 30.24 in.Hg
Derived measurements
Relative humidity 93%
Wind chill 41°F
Density altitude -1179 ft.
Remarks
No significant changes expected in the next two hours.
METAR RJAA 271530Z 23003KT 9999 MIFG FEW010 06/05 Q1024 NOSIG RMK 1ST010 A3025

Settings

Location code

InnerDrive.Weather 4.0.5399.0 Release CLR 4.0.30319.34014
Copyright ©2014 Inner Drive Technology. All rights reserved. Portions Copyright ©1986-2014 David Braverman.

Find weather

Site navigation


Skip Navigation Links

Place info

Page info

PayPal - The safer, easier way to pay online!

Return home.

Copyright ©2014 Inner Drive Technology. Purveyors of fine, hand-crafted computer software. Page printed 2014-11-27T15:47:01 UTC.